sensor_id;sensor_type;location;lat;lon;timestamp;P1;durP1;ratioP1;P2;durP2;ratioP2
58250;SDS011;51449;51.676;5.812;2023-06-22T00:02:14;9.73;;;8.80;;
58250;SDS011;51449;51.676;5.812;2023-06-22T00:04:36;10.23;;;8.35;;
58250;SDS011;51449;51.676;5.812;2023-06-22T00:06:58;9.75;;;8.75;;
58250;SDS011;51449;51.676;5.812;2023-06-22T00:09:19;8.75;;;7.88;;
58250;SDS011;51449;51.676;5.812;2023-06-22T00:11:41;9.00;;;7.65;;
58250;SDS011;51449;51.676;5.812;2023-06-22T00:14:03;10.55;;;9.45;;
58250;SDS011;51449;51.676;5.812;2023-06-22T00:16:26;10.45;;;9.35;;
58250;SDS011;51449;51.676;5.812;2023-06-22T00:18:48;9.52;;;8.57;;
58250;SDS011;51449;51.676;5.812;2023-06-22T00:21:10;9.32;;;7.82;;
58250;SDS011;51449;51.676;5.812;2023-06-22T00:23:33;10.07;;;9.07;;
58250;SDS011;51449;51.676;5.812;2023-06-22T00:25:55;12.50;;;8.75;;
58250;SDS011;51449;51.676;5.812;2023-06-22T00:28:17;12.68;;;9.18;;
58250;SDS011;51449;51.676;5.812;2023-06-22T00:30:39;11.88;;;9.07;;
58250;SDS011;51449;51.676;5.812;2023-06-22T00:33:01;10.20;;;9.20;;
58250;SDS011;51449;51.676;5.812;2023-06-22T00:35:23;10.75;;;9.52;;
58250;SDS011;51449;51.676;5.812;2023-06-22T00:37:51;11.57;;;10.30;;
58250;SDS011;51449;51.676;5.812;2023-06-22T00:40:22;11.05;;;9.90;;
58250;SDS011;51449;51.676;5.812;2023-06-22T00:42:44;9.88;;;8.88;;
58250;SDS011;51449;51.676;5.812;2023-06-22T00:45:06;10.23;;;9.32;;
58250;SDS011;51449;51.676;5.812;2023-06-22T00:47:29;13.25;;;9.60;;
58250;SDS011;51449;51.676;5.812;2023-06-22T00:49:51;10.27;;;9.27;;
58250;SDS011;51449;51.676;5.812;2023-06-22T00:52:12;10.60;;;9.50;;
58250;SDS011;51449;51.676;5.812;2023-06-22T00:54:43;11.98;;;10.38;;
58250;SDS011;51449;51.676;5.812;2023-06-22T00:57:06;15.88;;;11.35;;
58250;SDS011;51449;51.676;5.812;2023-06-22T00:59:32;14.13;;;11.48;;
58250;SDS011;51449;51.676;5.812;2023-06-22T01:01:56;11.63;;;10.38;;
58250;SDS011;51449;51.676;5.812;2023-06-22T01:04:19;12.15;;;10.98;;
58250;SDS011;51449;51.676;5.812;2023-06-22T01:06:56;11.07;;;9.75;;
58250;SDS011;51449;51.676;5.812;2023-06-22T01:09:28;12.68;;;11.48;;
58250;SDS011;51449;51.676;5.812;2023-06-22T01:12:00;11.35;;;10.25;;
58250;SDS011;51449;51.676;5.812;2023-06-22T01:14:31;12.95;;;11.65;;
58250;SDS011;51449;51.676;5.812;2023-06-22T01:17:13;13.35;;;11.48;;
58250;SDS011;51449;51.676;5.812;2023-06-22T01:22:17;13.65;;;12.25;;
58250;SDS011;51449;51.676;5.812;2023-06-22T01:30:36;14.38;;;12.25;;
58250;SDS011;51449;51.676;5.812;2023-06-22T01:33:01;13.75;;;12.35;;
58250;SDS011;51449;51.676;5.812;2023-06-22T01:35:26;14.52;;;13.02;;
58250;SDS011;51449;51.676;5.812;2023-06-22T01:37:49;13.68;;;12.23;;
58250;SDS011;51449;51.676;5.812;2023-06-22T01:40:12;12.82;;;11.52;;
58250;SDS011;51449;51.676;5.812;2023-06-22T01:42:37;15.77;;;12.60;;
58250;SDS011;51449;51.676;5.812;2023-06-22T01:45:01;14.52;;;12.10;;
58250;SDS011;51449;51.676;5.812;2023-06-22T01:47:24;12.50;;;11.20;;
58250;SDS011;51449;51.676;5.812;2023-06-22T01:52:15;13.63;;;12.18;;
58250;SDS011;51449;51.676;5.812;2023-06-22T01:54:37;14.63;;;12.80;;
58250;SDS011;51449;51.676;5.812;2023-06-22T01:59:32;14.82;;;12.45;;
58250;SDS011;51449;51.676;5.812;2023-06-22T02:02:06;14.70;;;13.07;;
58250;SDS011;51449;51.676;5.812;2023-06-22T02:04:33;14.20;;;12.70;;
58250;SDS011;51449;51.676;5.812;2023-06-22T02:07:09;13.70;;;12.23;;
58250;SDS011;51449;51.676;5.812;2023-06-22T02:09:38;16.48;;;12.73;;
58250;SDS011;51449;51.676;5.812;2023-06-22T02:12:04;12.45;;;11.25;;
58250;SDS011;51449;51.676;5.812;2023-06-22T02:14:29;13.02;;;11.63;;
58250;SDS011;51449;51.676;5.812;2023-06-22T02:16:51;12.60;;;11.20;;
58250;SDS011;51449;51.676;5.812;2023-06-22T02:19:13;14.75;;;13.15;;
58250;SDS011;51449;51.676;5.812;2023-06-22T02:21:40;14.15;;;12.43;;
58250;SDS011;51449;51.676;5.812;2023-06-22T02:24:02;13.55;;;11.88;;
58250;SDS011;51449;51.676;5.812;2023-06-22T02:26:25;15.07;;;13.18;;
58250;SDS011;51449;51.676;5.812;2023-06-22T02:28:48;13.25;;;11.93;;
58250;SDS011;51449;51.676;5.812;2023-06-22T02:31:11;14.35;;;12.73;;
58250;SDS011;51449;51.676;5.812;2023-06-22T02:33:33;16.40;;;14.35;;
58250;SDS011;51449;51.676;5.812;2023-06-22T02:35:54;16.05;;;14.35;;
58250;SDS011;51449;51.676;5.812;2023-06-22T02:38:16;21.20;;;16.80;;
58250;SDS011;51449;51.676;5.812;2023-06-22T02:40:38;22.88;;;18.85;;
58250;SDS011;51449;51.676;5.812;2023-06-22T02:43:00;22.08;;;15.50;;
58250;SDS011;51449;51.676;5.812;2023-06-22T02:45:24;16.95;;;15.25;;
58250;SDS011;51449;51.676;5.812;2023-06-22T02:47:46;22.90;;;18.33;;
58250;SDS011;51449;51.676;5.812;2023-06-22T02:50:10;28.63;;;24.55;;
58250;SDS011;51449;51.676;5.812;2023-06-22T02:52:31;32.67;;;25.65;;
58250;SDS011;51449;51.676;5.812;2023-06-22T02:54:53;26.95;;;23.42;;
58250;SDS011;51449;51.676;5.812;2023-06-22T02:57:15;39.15;;;28.02;;
58250;SDS011;51449;51.676;5.812;2023-06-22T02:59:37;33.95;;;25.25;;
58250;SDS011;51449;51.676;5.812;2023-06-22T03:02:04;25.92;;;21.25;;
58250;SDS011;51449;51.676;5.812;2023-06-22T03:04:27;25.17;;;19.88;;
58250;SDS011;51449;51.676;5.812;2023-06-22T03:06:49;24.67;;;19.67;;
58250;SDS011;51449;51.676;5.812;2023-06-22T03:09:12;25.83;;;22.45;;
58250;SDS011;51449;51.676;5.812;2023-06-22T03:11:34;25.38;;;20.15;;
58250;SDS011;51449;51.676;5.812;2023-06-22T03:13:57;22.88;;;19.70;;
58250;SDS011;51449;51.676;5.812;2023-06-22T03:16:19;20.63;;;17.38;;
58250;SDS011;51449;51.676;5.812;2023-06-22T03:18:42;19.92;;;17.77;;
58250;SDS011;51449;51.676;5.812;2023-06-22T03:21:03;21.77;;;17.75;;
58250;SDS011;51449;51.676;5.812;2023-06-22T03:23:25;22.33;;;18.38;;
58250;SDS011;51449;51.676;5.812;2023-06-22T03:25:47;22.27;;;18.52;;
58250;SDS011;51449;51.676;5.812;2023-06-22T03:28:09;22.73;;;17.38;;
58250;SDS011;51449;51.676;5.812;2023-06-22T03:30:30;25.40;;;19.45;;
58250;SDS011;51449;51.676;5.812;2023-06-22T03:32:54;25.38;;;19.15;;
58250;SDS011;51449;51.676;5.812;2023-06-22T03:35:16;25.85;;;20.67;;
58250;SDS011;51449;51.676;5.812;2023-06-22T03:37:38;27.55;;;21.55;;
58250;SDS011;51449;51.676;5.812;2023-06-22T03:39:59;28.70;;;21.80;;
58250;SDS011;51449;51.676;5.812;2023-06-22T03:42:23;28.50;;;21.45;;
58250;SDS011;51449;51.676;5.812;2023-06-22T03:44:44;33.05;;;23.75;;
58250;SDS011;51449;51.676;5.812;2023-06-22T03:47:06;28.60;;;22.98;;
58250;SDS011;51449;51.676;5.812;2023-06-22T03:49:29;37.47;;;25.95;;
58250;SDS011;51449;51.676;5.812;2023-06-22T03:51:51;31.05;;;23.48;;
58250;SDS011;51449;51.676;5.812;2023-06-22T03:54:13;28.33;;;21.73;;
58250;SDS011;51449;51.676;5.812;2023-06-22T03:56:35;20.73;;;17.60;;
58250;SDS011;51449;51.676;5.812;2023-06-22T03:58:56;19.48;;;17.15;;
58250;SDS011;51449;51.676;5.812;2023-06-22T04:01:18;22.23;;;18.13;;
58250;SDS011;51449;51.676;5.812;2023-06-22T04:03:40;22.08;;;17.80;;
58250;SDS011;51449;51.676;5.812;2023-06-22T04:06:02;21.77;;;17.73;;
58250;SDS011;51449;51.676;5.812;2023-06-22T04:08:24;21.30;;;16.77;;
58250;SDS011;51449;51.676;5.812;2023-06-22T04:10:46;18.55;;;16.05;;
58250;SDS011;51449;51.676;5.812;2023-06-22T04:13:07;19.50;;;15.80;;
58250;SDS011;51449;51.676;5.812;2023-06-22T04:15:29;21.38;;;17.63;;
58250;SDS011;51449;51.676;5.812;2023-06-22T04:17:51;29.05;;;21.80;;
58250;SDS011;51449;51.676;5.812;2023-06-22T04:20:13;32.80;;;24.05;;
58250;SDS011;51449;51.676;5.812;2023-06-22T04:22:35;37.08;;;25.83;;
58250;SDS011;51449;51.676;5.812;2023-06-22T04:24:56;35.97;;;26.42;;
58250;SDS011;51449;51.676;5.812;2023-06-22T04:27:18;38.15;;;25.65;;
58250;SDS011;51449;51.676;5.812;2023-06-22T04:29:41;36.13;;;27.17;;
58250;SDS011;51449;51.676;5.812;2023-06-22T04:32:09;41.88;;;28.42;;
58250;SDS011;51449;51.676;5.812;2023-06-22T04:36:55;36.08;;;26.80;;
58250;SDS011;51449;51.676;5.812;2023-06-22T04:39:17;37.50;;;26.83;;
58250;SDS011;51449;51.676;5.812;2023-06-22T04:41:40;36.70;;;25.55;;
58250;SDS011;51449;51.676;5.812;2023-06-22T04:44:05;30.88;;;23.45;;
58250;SDS011;51449;51.676;5.812;2023-06-22T04:46:26;28.00;;;21.58;;
58250;SDS011;51449;51.676;5.812;2023-06-22T04:48:48;26.60;;;21.73;;
58250;SDS011;51449;51.676;5.812;2023-06-22T04:51:10;30.48;;;22.17;;
58250;SDS011;51449;51.676;5.812;2023-06-22T04:53:32;27.58;;;21.13;;
58250;SDS011;51449;51.676;5.812;2023-06-22T04:55:53;29.63;;;23.15;;
58250;SDS011;51449;51.676;5.812;2023-06-22T04:58:15;28.80;;;21.38;;
58250;SDS011;51449;51.676;5.812;2023-06-22T05:00:37;28.75;;;21.55;;
58250;SDS011;51449;51.676;5.812;2023-06-22T05:03:00;28.73;;;20.80;;
58250;SDS011;51449;51.676;5.812;2023-06-22T05:05:39;28.60;;;21.65;;
58250;SDS011;51449;51.676;5.812;2023-06-22T05:08:01;27.38;;;22.67;;
58250;SDS011;51449;51.676;5.812;2023-06-22T05:10:23;29.95;;;22.77;;
58250;SDS011;51449;51.676;5.812;2023-06-22T05:12:46;29.38;;;21.85;;
58250;SDS011;51449;51.676;5.812;2023-06-22T05:15:08;27.23;;;23.13;;
58250;SDS011;51449;51.676;5.812;2023-06-22T05:17:30;26.08;;;22.25;;
58250;SDS011;51449;51.676;5.812;2023-06-22T05:19:53;23.33;;;20.80;;
58250;SDS011;51449;51.676;5.812;2023-06-22T05:22:15;23.63;;;20.85;;
58250;SDS011;51449;51.676;5.812;2023-06-22T05:24:37;23.60;;;21.00;;
58250;SDS011;51449;51.676;5.812;2023-06-22T05:26:59;25.75;;;21.13;;
58250;SDS011;51449;51.676;5.812;2023-06-22T05:29:20;23.77;;;21.30;;
58250;SDS011;51449;51.676;5.812;2023-06-22T05:31:44;24.08;;;21.08;;
58250;SDS011;51449;51.676;5.812;2023-06-22T05:34:06;23.67;;;20.50;;
58250;SDS011;51449;51.676;5.812;2023-06-22T05:36:28;22.77;;;20.17;;
58250;SDS011;51449;51.676;5.812;2023-06-22T05:38:51;25.10;;;20.60;;
58250;SDS011;51449;51.676;5.812;2023-06-22T05:41:13;24.53;;;21.37;;
58250;SDS011;51449;51.676;5.812;2023-06-22T05:43:35;22.00;;;19.65;;
58250;SDS011;51449;51.676;5.812;2023-06-22T05:45:57;23.60;;;20.83;;
58250;SDS011;51449;51.676;5.812;2023-06-22T05:48:20;28.88;;;22.67;;
58250;SDS011;51449;51.676;5.812;2023-06-22T05:50:42;23.88;;;21.42;;
58250;SDS011;51449;51.676;5.812;2023-06-22T05:53:04;26.35;;;22.73;;
58250;SDS011;51449;51.676;5.812;2023-06-22T05:55:28;24.30;;;21.70;;
58250;SDS011;51449;51.676;5.812;2023-06-22T05:57:49;25.52;;;21.55;;
58250;SDS011;51449;51.676;5.812;2023-06-22T06:00:11;23.73;;;20.42;;
58250;SDS011;51449;51.676;5.812;2023-06-22T06:02:35;24.42;;;21.77;;
58250;SDS011;51449;51.676;5.812;2023-06-22T06:04:57;23.90;;;20.75;;
58250;SDS011;51449;51.676;5.812;2023-06-22T06:07:18;24.10;;;20.88;;
58250;SDS011;51449;51.676;5.812;2023-06-22T06:09:40;25.33;;;21.40;;
58250;SDS011;51449;51.676;5.812;2023-06-22T06:12:02;21.75;;;19.45;;
58250;SDS011;51449;51.676;5.812;2023-06-22T06:14:24;24.98;;;21.58;;
58250;SDS011;51449;51.676;5.812;2023-06-22T06:16:46;23.35;;;20.90;;
58250;SDS011;51449;51.676;5.812;2023-06-22T06:19:08;24.33;;;21.73;;
58250;SDS011;51449;51.676;5.812;2023-06-22T06:21:29;23.05;;;20.50;;
58250;SDS011;51449;51.676;5.812;2023-06-22T06:23:51;25.20;;;21.88;;
58250;SDS011;51449;51.676;5.812;2023-06-22T06:26:14;24.05;;;21.45;;
58250;SDS011;51449;51.676;5.812;2023-06-22T06:28:38;24.17;;;21.67;;
58250;SDS011;51449;51.676;5.812;2023-06-22T06:30:59;24.08;;;21.20;;
58250;SDS011;51449;51.676;5.812;2023-06-22T06:33:21;24.20;;;21.67;;
58250;SDS011;51449;51.676;5.812;2023-06-22T06:35:46;26.15;;;23.10;;
58250;SDS011;51449;51.676;5.812;2023-06-22T06:38:08;23.67;;;21.25;;
58250;SDS011;51449;51.676;5.812;2023-06-22T06:40:29;28.45;;;23.10;;
58250;SDS011;51449;51.676;5.812;2023-06-22T06:42:52;29.05;;;22.60;;
58250;SDS011;51449;51.676;5.812;2023-06-22T06:45:20;22.50;;;20.10;;
58250;SDS011;51449;51.676;5.812;2023-06-22T06:47:44;25.58;;;20.58;;
58250;SDS011;51449;51.676;5.812;2023-06-22T06:50:06;23.25;;;20.75;;
58250;SDS011;51449;51.676;5.812;2023-06-22T06:52:29;23.77;;;21.15;;
58250;SDS011;51449;51.676;5.812;2023-06-22T06:54:51;21.92;;;19.63;;
58250;SDS011;51449;51.676;5.812;2023-06-22T06:57:13;22.30;;;20.00;;
58250;SDS011;51449;51.676;5.812;2023-06-22T06:59:36;23.52;;;20.95;;
58250;SDS011;51449;51.676;5.812;2023-06-22T07:01:58;23.35;;;20.27;;
58250;SDS011;51449;51.676;5.812;2023-06-22T07:04:20;22.80;;;20.42;;
58250;SDS011;51449;51.676;5.812;2023-06-22T07:06:42;22.35;;;19.77;;
58250;SDS011;51449;51.676;5.812;2023-06-22T07:09:04;23.88;;;21.38;;
58250;SDS011;51449;51.676;5.812;2023-06-22T07:11:26;23.02;;;20.63;;
58250;SDS011;51449;51.676;5.812;2023-06-22T07:13:48;22.13;;;19.30;;
58250;SDS011;51449;51.676;5.812;2023-06-22T07:16:10;26.13;;;21.02;;
58250;SDS011;51449;51.676;5.812;2023-06-22T07:18:31;25.98;;;20.52;;
58250;SDS011;51449;51.676;5.812;2023-06-22T07:20:53;23.98;;;21.42;;
58250;SDS011;51449;51.676;5.812;2023-06-22T07:23:15;22.45;;;20.25;;
58250;SDS011;51449;51.676;5.812;2023-06-22T07:25:38;23.20;;;20.42;;
58250;SDS011;51449;51.676;5.812;2023-06-22T07:28:04;21.75;;;19.45;;
58250;SDS011;51449;51.676;5.812;2023-06-22T07:30:27;24.00;;;21.58;;
58250;SDS011;51449;51.676;5.812;2023-06-22T07:32:50;22.73;;;20.02;;
58250;SDS011;51449;51.676;5.812;2023-06-22T07:35:12;26.42;;;21.48;;
58250;SDS011;51449;51.676;5.812;2023-06-22T07:37:34;22.90;;;20.50;;
58250;SDS011;51449;51.676;5.812;2023-06-22T07:39:56;23.70;;;20.48;;
58250;SDS011;51449;51.676;5.812;2023-06-22T07:42:19;22.33;;;19.95;;
58250;SDS011;51449;51.676;5.812;2023-06-22T07:44:41;23.08;;;20.75;;
58250;SDS011;51449;51.676;5.812;2023-06-22T07:47:03;21.52;;;19.42;;
58250;SDS011;51449;51.676;5.812;2023-06-22T07:49:25;22.17;;;19.88;;
58250;SDS011;51449;51.676;5.812;2023-06-22T07:51:47;22.27;;;20.02;;
58250;SDS011;51449;51.676;5.812;2023-06-22T07:54:08;20.58;;;18.42;;
58250;SDS011;51449;51.676;5.812;2023-06-22T07:56:31;22.13;;;19.63;;
58250;SDS011;51449;51.676;5.812;2023-06-22T07:58:54;22.75;;;19.85;;
58250;SDS011;51449;51.676;5.812;2023-06-22T08:01:16;23.02;;;19.98;;
58250;SDS011;51449;51.676;5.812;2023-06-22T08:06:02;21.17;;;18.90;;
58250;SDS011;51449;51.676;5.812;2023-06-22T08:08:24;23.80;;;21.20;;
58250;SDS011;51449;51.676;5.812;2023-06-22T08:10:46;23.10;;;20.60;;
58250;SDS011;51449;51.676;5.812;2023-06-22T08:13:08;22.73;;;20.38;;
58250;SDS011;51449;51.676;5.812;2023-06-22T08:15:31;22.60;;;20.17;;
58250;SDS011;51449;51.676;5.812;2023-06-22T08:17:53;22.00;;;19.70;;
58250;SDS011;51449;51.676;5.812;2023-06-22T08:20:15;22.75;;;20.45;;
58250;SDS011;51449;51.676;5.812;2023-06-22T08:22:37;21.58;;;19.15;;
58250;SDS011;51449;51.676;5.812;2023-06-22T08:25:00;21.90;;;19.50;;
58250;SDS011;51449;51.676;5.812;2023-06-22T08:27:22;21.85;;;18.90;;
58250;SDS011;51449;51.676;5.812;2023-06-22T08:29:45;22.15;;;19.77;;
58250;SDS011;51449;51.676;5.812;2023-06-22T08:32:07;20.50;;;18.40;;
58250;SDS011;51449;51.676;5.812;2023-06-22T08:34:33;20.10;;;18.10;;
58250;SDS011;51449;51.676;5.812;2023-06-22T08:36:56;22.23;;;20.02;;
58250;SDS011;51449;51.676;5.812;2023-06-22T08:39:18;21.60;;;19.50;;
58250;SDS011;51449;51.676;5.812;2023-06-22T08:41:41;22.42;;;20.08;;
58250;SDS011;51449;51.676;5.812;2023-06-22T08:44:03;21.05;;;18.55;;
58250;SDS011;51449;51.676;5.812;2023-06-22T08:46:25;22.40;;;20.13;;
58250;SDS011;51449;51.676;5.812;2023-06-22T08:48:52;21.92;;;19.63;;
58250;SDS011;51449;51.676;5.812;2023-06-22T08:51:13;23.23;;;20.83;;
58250;SDS011;51449;51.676;5.812;2023-06-22T08:53:35;21.83;;;19.52;;
58250;SDS011;51449;51.676;5.812;2023-06-22T08:55:58;23.13;;;20.42;;
58250;SDS011;51449;51.676;5.812;2023-06-22T08:58:19;21.30;;;19.10;;
58250;SDS011;51449;51.676;5.812;2023-06-22T09:00:42;22.33;;;19.20;;
58250;SDS011;51449;51.676;5.812;2023-06-22T09:03:04;21.95;;;19.65;;
58250;SDS011;51449;51.676;5.812;2023-06-22T09:05:26;22.88;;;19.83;;
58250;SDS011;51449;51.676;5.812;2023-06-22T09:07:48;21.65;;;19.42;;
58250;SDS011;51449;51.676;5.812;2023-06-22T09:10:10;21.40;;;18.85;;
58250;SDS011;51449;51.676;5.812;2023-06-22T09:12:32;21.33;;;19.20;;
58250;SDS011;51449;51.676;5.812;2023-06-22T09:14:55;22.48;;;20.15;;
58250;SDS011;51449;51.676;5.812;2023-06-22T09:17:17;22.13;;;19.85;;
58250;SDS011;51449;51.676;5.812;2023-06-22T09:19:38;22.17;;;19.88;;
58250;SDS011;51449;51.676;5.812;2023-06-22T09:22:01;21.58;;;19.33;;
58250;SDS011;51449;51.676;5.812;2023-06-22T09:24:22;20.25;;;18.27;;
58250;SDS011;51449;51.676;5.812;2023-06-22T09:26:44;20.40;;;18.30;;
58250;SDS011;51449;51.676;5.812;2023-06-22T09:29:06;21.98;;;19.67;;
58250;SDS011;51449;51.676;5.812;2023-06-22T09:31:28;20.40;;;18.33;;
58250;SDS011;51449;51.676;5.812;2023-06-22T09:33:49;20.60;;;18.52;;
58250;SDS011;51449;51.676;5.812;2023-06-22T09:36:12;20.40;;;18.33;;
58250;SDS011;51449;51.676;5.812;2023-06-22T09:38:40;20.25;;;18.15;;
58250;SDS011;51449;51.676;5.812;2023-06-22T09:41:02;22.35;;;19.50;;
58250;SDS011;51449;51.676;5.812;2023-06-22T09:43:25;20.38;;;17.65;;
58250;SDS011;51449;51.676;5.812;2023-06-22T09:45:46;20.88;;;18.73;;
58250;SDS011;51449;51.676;5.812;2023-06-22T09:48:08;20.95;;;18.98;;
58250;SDS011;51449;51.676;5.812;2023-06-22T09:50:31;20.33;;;18.20;;
58250;SDS011;51449;51.676;5.812;2023-06-22T09:52:53;18.23;;;16.35;;
58250;SDS011;51449;51.676;5.812;2023-06-22T09:55:16;17.85;;;16.05;;
58250;SDS011;51449;51.676;5.812;2023-06-22T09:57:38;19.83;;;17.83;;
58250;SDS011;51449;51.676;5.812;2023-06-22T10:00:00;19.42;;;16.13;;
58250;SDS011;51449;51.676;5.812;2023-06-22T10:02:24;20.33;;;17.42;;
58250;SDS011;51449;51.676;5.812;2023-06-22T10:04:46;20.60;;;18.45;;
58250;SDS011;51449;51.676;5.812;2023-06-22T10:07:09;24.55;;;20.05;;
58250;SDS011;51449;51.676;5.812;2023-06-22T10:09:30;20.40;;;18.35;;
58250;SDS011;51449;51.676;5.812;2023-06-22T10:11:52;22.60;;;20.38;;
58250;SDS011;51449;51.676;5.812;2023-06-22T10:14:14;21.42;;;19.23;;
58250;SDS011;51449;51.676;5.812;2023-06-22T10:16:36;24.17;;;19.20;;
58250;SDS011;51449;51.676;5.812;2023-06-22T10:18:58;21.10;;;19.10;;
58250;SDS011;51449;51.676;5.812;2023-06-22T10:21:20;20.35;;;18.25;;
58250;SDS011;51449;51.676;5.812;2023-06-22T10:23:42;20.08;;;18.00;;
58250;SDS011;51449;51.676;5.812;2023-06-22T10:26:04;21.08;;;18.77;;
58250;SDS011;51449;51.676;5.812;2023-06-22T10:28:26;19.30;;;17.23;;
58250;SDS011;51449;51.676;5.812;2023-06-22T10:30:47;20.38;;;18.33;;
58250;SDS011;51449;51.676;5.812;2023-06-22T10:33:09;19.02;;;17.13;;
58250;SDS011;51449;51.676;5.812;2023-06-22T10:35:33;19.60;;;17.45;;
58250;SDS011;51449;51.676;5.812;2023-06-22T10:37:55;19.75;;;17.85;;
58250;SDS011;51449;51.676;5.812;2023-06-22T10:40:17;21.13;;;17.77;;
58250;SDS011;51449;51.676;5.812;2023-06-22T10:42:40;17.50;;;15.73;;
58250;SDS011;51449;51.676;5.812;2023-06-22T10:45:03;18.48;;;16.50;;
58250;SDS011;51449;51.676;5.812;2023-06-22T10:47:25;17.90;;;16.00;;
58250;SDS011;51449;51.676;5.812;2023-06-22T10:49:47;18.80;;;16.13;;
58250;SDS011;51449;51.676;5.812;2023-06-22T10:52:08;16.83;;;15.13;;
58250;SDS011;51449;51.676;5.812;2023-06-22T10:54:32;18.20;;;16.40;;
58250;SDS011;51449;51.676;5.812;2023-06-22T10:56:55;18.00;;;16.02;;
58250;SDS011;51449;51.676;5.812;2023-06-22T10:59:16;18.30;;;16.40;;
58250;SDS011;51449;51.676;5.812;2023-06-22T11:01:38;17.17;;;15.57;;
58250;SDS011;51449;51.676;5.812;2023-06-22T11:04:00;16.90;;;15.10;;
58250;SDS011;51449;51.676;5.812;2023-06-22T11:06:23;17.43;;;15.83;;
58250;SDS011;51449;51.676;5.812;2023-06-22T11:08:45;20.55;;;15.02;;
58250;SDS011;51449;51.676;5.812;2023-06-22T11:11:25;18.60;;;16.38;;
58250;SDS011;51449;51.676;5.812;2023-06-22T11:13:48;18.35;;;16.55;;
58250;SDS011;51449;51.676;5.812;2023-06-22T11:16:10;17.00;;;15.30;;
58250;SDS011;51449;51.676;5.812;2023-06-22T11:18:32;18.10;;;15.18;;
58250;SDS011;51449;51.676;5.812;2023-06-22T11:20:55;18.50;;;16.17;;
58250;SDS011;51449;51.676;5.812;2023-06-22T11:23:16;18.58;;;16.63;;
58250;SDS011;51449;51.676;5.812;2023-06-22T11:25:38;18.73;;;16.85;;
58250;SDS011;51449;51.676;5.812;2023-06-22T11:28:01;20.20;;;18.10;;
58250;SDS011;51449;51.676;5.812;2023-06-22T11:30:24;21.58;;;19.38;;
58250;SDS011;51449;51.676;5.812;2023-06-22T11:32:46;22.80;;;20.25;;
58250;SDS011;51449;51.676;5.812;2023-06-22T11:35:08;26.27;;;21.52;;
58250;SDS011;51449;51.676;5.812;2023-06-22T11:37:30;25.20;;;22.60;;
58250;SDS011;51449;51.676;5.812;2023-06-22T11:39:51;23.35;;;21.00;;
58250;SDS011;51449;51.676;5.812;2023-06-22T11:42:19;23.23;;;20.77;;
58250;SDS011;51449;51.676;5.812;2023-06-22T11:44:42;23.77;;;21.27;;
58250;SDS011;51449;51.676;5.812;2023-06-22T11:47:05;24.25;;;21.80;;
58250;SDS011;51449;51.676;5.812;2023-06-22T11:49:27;26.05;;;23.42;;
58250;SDS011;51449;51.676;5.812;2023-06-22T11:51:49;25.45;;;22.75;;
58250;SDS011;51449;51.676;5.812;2023-06-22T11:54:10;27.23;;;24.42;;
58250;SDS011;51449;51.676;5.812;2023-06-22T11:56:32;26.65;;;23.88;;
58250;SDS011;51449;51.676;5.812;2023-06-22T11:58:54;26.88;;;23.60;;
58250;SDS011;51449;51.676;5.812;2023-06-22T12:01:16;26.00;;;23.30;;
58250;SDS011;51449;51.676;5.812;2023-06-22T12:03:38;29.00;;;24.50;;
58250;SDS011;51449;51.676;5.812;2023-06-22T12:06:00;26.67;;;23.80;;
58250;SDS011;51449;51.676;5.812;2023-06-22T12:08:22;28.92;;;25.45;;
58250;SDS011;51449;51.676;5.812;2023-06-22T12:10:43;28.95;;;26.10;;
58250;SDS011;51449;51.676;5.812;2023-06-22T12:13:05;29.80;;;26.63;;
58250;SDS011;51449;51.676;5.812;2023-06-22T12:15:27;28.30;;;25.40;;
58250;SDS011;51449;51.676;5.812;2023-06-22T12:17:49;29.38;;;26.27;;
58250;SDS011;51449;51.676;5.812;2023-06-22T12:20:11;31.27;;;27.88;;
58250;SDS011;51449;51.676;5.812;2023-06-22T12:22:33;27.95;;;25.05;;
58250;SDS011;51449;51.676;5.812;2023-06-22T12:24:56;27.30;;;24.55;;
58250;SDS011;51449;51.676;5.812;2023-06-22T12:27:17;29.90;;;26.70;;
58250;SDS011;51449;51.676;5.812;2023-06-22T12:29:39;26.10;;;23.40;;
58250;SDS011;51449;51.676;5.812;2023-06-22T12:32:01;27.52;;;24.65;;
58250;SDS011;51449;51.676;5.812;2023-06-22T12:34:23;28.38;;;25.48;;
58250;SDS011;51449;51.676;5.812;2023-06-22T12:36:45;27.75;;;24.85;;
58250;SDS011;51449;51.676;5.812;2023-06-22T12:39:08;29.60;;;26.63;;
58250;SDS011;51449;51.676;5.812;2023-06-22T12:41:30;32.10;;;28.80;;
58250;SDS011;51449;51.676;5.812;2023-06-22T12:43:52;33.50;;;30.10;;
58250;SDS011;51449;51.676;5.812;2023-06-22T12:46:14;33.40;;;29.38;;
58250;SDS011;51449;51.676;5.812;2023-06-22T12:48:35;30.73;;;27.73;;
58250;SDS011;51449;51.676;5.812;2023-06-22T12:51:02;30.25;;;27.38;;
58250;SDS011;51449;51.676;5.812;2023-06-22T12:53:24;30.38;;;27.45;;
58250;SDS011;51449;51.676;5.812;2023-06-22T12:55:48;29.77;;;26.88;;
58250;SDS011;51449;51.676;5.812;2023-06-22T12:58:10;29.77;;;26.77;;
58250;SDS011;51449;51.676;5.812;2023-06-22T13:00:32;29.15;;;26.02;;
58250;SDS011;51449;51.676;5.812;2023-06-22T13:02:54;26.85;;;24.23;;
58250;SDS011;51449;51.676;5.812;2023-06-22T13:05:18;29.20;;;26.45;;
58250;SDS011;51449;51.676;5.812;2023-06-22T13:07:40;28.55;;;25.88;;
58250;SDS011;51449;51.676;5.812;2023-06-22T13:10:04;27.70;;;24.90;;
58250;SDS011;51449;51.676;5.812;2023-06-22T13:12:26;27.50;;;24.60;;
58250;SDS011;51449;51.676;5.812;2023-06-22T13:14:48;25.67;;;23.17;;
58250;SDS011;51449;51.676;5.812;2023-06-22T13:17:10;26.05;;;23.55;;
58250;SDS011;51449;51.676;5.812;2023-06-22T13:19:32;25.20;;;22.75;;
58250;SDS011;51449;51.676;5.812;2023-06-22T13:21:54;23.52;;;21.33;;
58250;SDS011;51449;51.676;5.812;2023-06-22T13:24:16;23.88;;;21.42;;
58250;SDS011;51449;51.676;5.812;2023-06-22T13:26:37;25.42;;;22.88;;
58250;SDS011;51449;51.676;5.812;2023-06-22T13:28:59;23.70;;;21.20;;
58250;SDS011;51449;51.676;5.812;2023-06-22T13:31:21;23.55;;;21.15;;
58250;SDS011;51449;51.676;5.812;2023-06-22T13:33:43;24.33;;;21.95;;
58250;SDS011;51449;51.676;5.812;2023-06-22T13:36:07;23.13;;;21.10;;
58250;SDS011;51449;51.676;5.812;2023-06-22T13:38:29;22.60;;;20.38;;
58250;SDS011;51449;51.676;5.812;2023-06-22T13:40:53;22.15;;;20.15;;
58250;SDS011;51449;51.676;5.812;2023-06-22T13:43:17;22.15;;;20.15;;
58250;SDS011;51449;51.676;5.812;2023-06-22T13:45:39;23.67;;;21.40;;
58250;SDS011;51449;51.676;5.812;2023-06-22T13:48:00;23.60;;;21.20;;
58250;SDS011;51449;51.676;5.812;2023-06-22T13:50:22;23.67;;;21.35;;
58250;SDS011;51449;51.676;5.812;2023-06-22T13:52:44;24.13;;;21.83;;
58250;SDS011;51449;51.676;5.812;2023-06-22T13:55:06;25.80;;;23.35;;
58250;SDS011;51449;51.676;5.812;2023-06-22T13:57:28;25.48;;;23.10;;
58250;SDS011;51449;51.676;5.812;2023-06-22T13:59:50;26.08;;;23.67;;
58250;SDS011;51449;51.676;5.812;2023-06-22T14:02:12;24.55;;;22.23;;
58250;SDS011;51449;51.676;5.812;2023-06-22T14:04:33;24.33;;;22.08;;
58250;SDS011;51449;51.676;5.812;2023-06-22T14:06:55;27.75;;;25.05;;
58250;SDS011;51449;51.676;5.812;2023-06-22T14:09:18;26.02;;;23.45;;
58250;SDS011;51449;51.676;5.812;2023-06-22T14:11:39;26.65;;;24.17;;
58250;SDS011;51449;51.676;5.812;2023-06-22T14:14:01;26.52;;;24.13;;
58250;SDS011;51449;51.676;5.812;2023-06-22T14:16:23;25.90;;;23.27;;